Terminal Aerodrome Forecast
Issued by NWS Sioux Falls, SD

Home | Current Version | Previous Version | Graphics & Text | Print | Product List | Glossary Off
Versions: 1 2 3 4 5 6 7 8 9 10 11 12 13 14 15 16 17 18

000
FTUS43 KFSD 261000 AAA
TAFFSD
TAF AMD
KFSD 261033Z 2611/2706 08006KT P6SM FEW015 BKN130
      TEMPO 2611/2615 P6SM -TSRA SCT070CB BKN110
     FM261500 17006KT P6SM SCT110
     FM261800 26008KT P6SM SCT050=

USA.gov is the U.S. government's official web portal to all federal, state and local government web resources and services.